Terminal Aerodrome Forecast
Issued by NWS Omaha/Valley, NE

Home | Current Version | Previous Version | Text Only | Print | Product List | Glossary On
Versions: 1 2 3 4 5 6 7 8 9 10 11 12 13 14 15 16 17 18 19 20 21 22 23 24
000
FTUS43 KOAX 241734
TAFLNK
TAF
KLNK 241734Z 2418/2518 34018G25KT P6SM OVC090
     FM242000 33020G28KT P6SM BKN250
     FM242300 33014KT P6SM SCT250
     FM250100 VRB03KT P6SM SKC
     FM251700 25014G20KT P6SM SKC=

USA.gov is the U.S. government's official web portal to all federal, state and local government web resources and services.